Time;durP1;ratioP1;P1;durP2;ratioP2;P2;SDS_P1;SDS_P2;PMS_P1;PMS_P2;Temp;Humidity;BMP_temperature;BMP_pressure;BME280_temperature;BME280_humidity;BME280_pressure;Samples;Min_cycle;Max_cycle;Signal;HPM_P1;HPM_P2
2021/10/09 00:01:16;;;;;;;13.75;12.35;;;6.80;83.80;;;;;;5015505;29;20154;-68
2021/10/09 00:03:52;;;;;;;12.32;11.13;;;6.70;83.60;;;;;;5015700;29;20045;-68
2021/10/09 00:06:24;;;;;;;12.05;10.82;;;6.70;83.80;;;;;;5014567;29;20148;-68
2021/10/09 00:08:55;;;;;;;12.75;11.45;;;6.60;83.80;;;;;;5015157;29;20041;-69
2021/10/09 00:11:37;;;;;;;12.60;11.27;;;6.60;83.80;;;;;;5014557;29;20045;-67
2021/10/09 00:14:12;;;;;;;14.05;12.27;;;6.60;83.90;;;;;;5016005;29;20073;-68
2021/10/09 00:16:44;;;;;;;12.40;11.20;;;6.50;84.10;;;;;;5015210;29;20049;-68
2021/10/09 00:19:16;;;;;;;12.48;11.18;;;6.50;84.20;;;;;;5018880;29;20137;-70
2021/10/09 00:21:48;;;;;;;12.70;11.40;;;6.40;84.80;;;;;;5006447;29;20065;-68
2021/10/09 00:24:20;;;;;;;12.65;11.35;;;6.40;85.20;;;;;;5019185;29;20056;-68
2021/10/09 00:26:52;;;;;;;12.32;10.90;;;6.40;84.90;;;;;;5017194;29;20190;-68
2021/10/09 00:29:24;;;;;;;12.23;11.02;;;6.40;84.80;;;;;;5018850;29;20045;-69
2021/10/09 00:31:56;;;;;;;13.30;11.57;;;6.40;84.30;;;;;;5016494;29;20140;-68
2021/10/09 00:34:28;;;;;;;12.45;11.15;;;6.40;85.50;;;;;;5001687;29;20053;-69
2021/10/09 00:37:00;;;;;;;12.63;11.32;;;6.40;84.50;;;;;;5015797;29;20893;-69
2021/10/09 00:39:31;;;;;;;13.43;11.35;;;6.40;85.30;;;;;;5016983;29;20144;-68
2021/10/09 00:42:05;;;;;;;12.88;11.55;;;6.40;84.40;;;;;;5017137;29;20458;-67
2021/10/09 00:44:37;;;;;;;13.35;10.93;;;6.40;83.60;;;;;;5015856;29;20057;-69
2021/10/09 00:47:09;;;;;;;12.98;11.68;;;6.40;83.90;;;;;;5000578;29;20073;-67
2021/10/09 00:49:42;;;;;;;13.30;11.18;;;6.30;84.70;;;;;;5018196;29;20429;-67
2021/10/09 00:52:15;;;;;;;12.75;11.30;;;6.30;84.90;;;;;;5004964;29;20592;-68
2021/10/09 00:54:48;;;;;;;13.10;11.13;;;6.20;84.60;;;;;;5001368;29;20109;-67
2021/10/09 00:57:22;;;;;;;13.00;11.70;;;6.20;85.20;;;;;;5016616;29;20113;-69
2021/10/09 00:59:57;;;;;;;11.90;10.70;;;6.20;85.60;;;;;;5018849;29;20074;-68
2021/10/09 01:02:29;;;;;;;12.40;11.10;;;6.10;85.60;;;;;;5018864;29;20137;-68
2021/10/09 01:05:02;;;;;;;12.63;11.30;;;6.10;85.80;;;;;;5016632;29;20215;-68
2021/10/09 01:07:34;;;;;;;12.40;11.20;;;6.10;85.80;;;;;;5017932;29;20420;-69
2021/10/09 01:10:07;;;;;;;12.73;11.50;;;6.20;85.20;;;;;;5015170;29;20076;-68
2021/10/09 01:12:39;;;;;;;11.93;10.73;;;6.20;85.40;;;;;;5013820;29;20148;-69
2021/10/09 01:15:19;;;;;;;12.50;10.98;;;6.20;85.40;;;;;;5015143;29;20045;-70
2021/10/09 01:17:51;;;;;;;12.73;11.43;;;6.20;84.90;;;;;;5016263;29;20541;-68
2021/10/09 01:20:23;;;;;;;25.65;11.48;;;6.20;84.80;;;;;;4999624;29;20049;-68
2021/10/09 01:23:03;;;;;;;12.52;11.25;;;6.20;84.30;;;;;;5001775;29;20042;-68
2021/10/09 01:25:37;;;;;;;12.10;10.85;;;6.30;83.80;;;;;;5016056;29;20508;-67
2021/10/09 01:28:09;;;;;;;12.93;11.63;;;6.30;83.50;;;;;;5011824;29;20041;-67
2021/10/09 01:30:42;;;;;;;13.15;11.75;;;6.20;83.10;;;;;;5000654;29;20132;-70
2021/10/09 01:33:15;;;;;;;13.05;11.07;;;6.20;83.00;;;;;;5017637;29;20072;-67
2021/10/09 01:35:50;;;;;;;11.80;10.60;;;6.20;83.10;;;;;;5002201;29;20057;-69
2021/10/09 01:38:27;;;;;;;12.25;11.05;;;6.10;82.60;;;;;;5000708;29;20049;-67
2021/10/09 01:41:00;;;;;;;12.85;11.07;;;6.20;83.00;;;;;;5017744;29;20041;-68
2021/10/09 01:43:32;;;;;;;11.90;10.70;;;6.10;83.70;;;;;;5005001;29;20060;-69
2021/10/09 01:46:04;;;;;;;11.90;10.70;;;6.00;84.50;;;;;;5015907;29;20121;-67
2021/10/09 01:48:39;;;;;;;12.82;11.52;;;5.90;84.30;;;;;;5019402;29;20523;-68
2021/10/09 01:51:12;;;;;;;13.38;11.98;;;5.90;84.50;;;;;;5017228;29;20105;-67
2021/10/09 01:53:45;;;;;;;12.70;11.35;;;5.90;84.70;;;;;;5016793;29;20093;-67
2021/10/09 01:56:18;;;;;;;13.63;11.88;;;5.80;84.70;;;;;;5015045;29;20939;-67
2021/10/09 01:58:51;;;;;;;12.50;11.20;;;5.80;84.80;;;;;;5014979;29;20045;-67
2021/10/09 02:01:33;;;;;;;12.75;11.48;;;5.70;84.70;;;;;;4999246;29;20473;-67
2021/10/09 02:04:05;;;;;;;13.05;11.00;;;5.80;84.30;;;;;;5016514;29;20053;-67
2021/10/09 02:06:37;;;;;;;13.23;11.32;;;5.80;84.30;;;;;;5014737;29;20860;-67
2021/10/09 02:09:10;;;;;;;12.65;11.35;;;5.90;83.60;;;;;;4997737;29;20049;-67
2021/10/09 02:11:46;;;;;;;11.95;10.82;;;5.80;83.40;;;;;;5000653;29;20066;-67
2021/10/09 02:25:47;;;;;;;13.93;11.10;;;5.90;83.60;;;;;;5001404;29;20045;-67
2021/10/09 02:28:22;;;;;;;;;;;5.90;83.70;;;;;;5015330;29;20600;-68
2021/10/09 02:30:55;;;;;;;12.50;11.20;;;5.80;84.20;;;;;;4999816;29;19931;-68
2021/10/09 02:33:31;;;;;;;12.15;10.77;;;5.90;84.80;;;;;;4999367;29;20053;-68
2021/10/09 02:36:05;;;;;;;12.30;10.98;;;5.90;84.30;;;;;;5013507;29;20156;-68
2021/10/09 02:38:38;;;;;;;13.05;11.70;;;5.80;84.40;;;;;;5015967;29;20102;-67
2021/10/09 02:41:11;;;;;;;11.90;10.70;;;5.90;85.80;;;;;;5015179;29;20049;-68
2021/10/09 02:43:43;;;;;;;12.25;11.02;;;5.80;85.20;;;;;;5017670;29;20093;-68
2021/10/09 02:46:15;;;;;;;12.02;10.75;;;5.80;85.10;;;;;;5015109;29;20665;-66
2021/10/09 02:48:47;;;;;;;12.38;11.18;;;5.80;85.30;;;;;;5015980;29;20042;-70
2021/10/09 02:51:19;;;;;;;12.57;11.25;;;5.80;85.80;;;;;;5017069;29;20081;-68
2021/10/09 02:53:55;;;;;;;12.45;11.15;;;5.70;86.00;;;;;;5014354;29;20068;-70
2021/10/09 02:56:27;;;;;;;12.30;11.00;;;5.70;85.80;;;;;;5013585;29;20049;-68
2021/10/09 02:58:59;;;;;;;13.57;12.18;;;5.70;86.20;;;;;;5000608;29;20173;-68
2021/10/09 03:01:30;;;;;;;12.13;10.77;;;5.80;86.50;;;;;;5015004;29;20512;-68
2021/10/09 03:04:03;;;;;;;11.93;10.65;;;5.80;86.10;;;;;;5016365;29;20037;-69
2021/10/09 03:06:35;;;;;;;12.50;11.25;;;5.90;86.60;;;;;;5015485;29;20080;-67
2021/10/09 03:09:08;;;;;;;11.38;10.27;;;5.90;85.90;;;;;;5000578;29;20049;-68
2021/10/09 03:11:42;;;;;;;12.40;11.10;;;6.00;85.70;;;;;;5006247;29;20082;-69
2021/10/09 03:14:14;;;;;;;11.88;10.68;;;6.00;86.20;;;;;;5014796;29;20211;-68
2021/10/09 03:16:46;;;;;;;11.98;10.70;;;6.00;86.50;;;;;;5012038;29;20121;-68
2021/10/09 03:19:18;;;;;;;12.23;11.02;;;6.00;85.90;;;;;;4999144;29;20077;-70
2021/10/09 03:21:50;;;;;;;12.10;10.90;;;5.90;86.20;;;;;;5014674;29;20053;-68
2021/10/09 03:24:22;;;;;;;12.20;10.95;;;5.90;86.50;;;;;;4999609;29;20125;-68
2021/10/09 03:26:54;;;;;;;11.80;10.60;;;5.90;86.60;;;;;;5012566;29;20045;-68
2021/10/09 03:29:28;;;;;;;11.55;10.38;;;5.90;86.70;;;;;;5013625;29;20081;-68
2021/10/09 03:32:01;;;;;;;12.15;10.93;;;5.90;86.40;;;;;;5011430;29;20046;-69
2021/10/09 03:34:35;;;;;;;10.73;9.68;;;5.90;86.90;;;;;;4999461;29;20454;-68
2021/10/09 03:37:07;;;;;;;11.52;10.35;;;5.90;87.70;;;;;;5014716;29;20049;-68
2021/10/09 03:39:43;;;;;;;11.77;10.57;;;5.90;86.70;;;;;;5014310;29;20110;-67
2021/10/09 03:42:23;;;;;;;12.10;10.63;;;5.90;87.10;;;;;;5015394;29;20057;-68
2021/10/09 03:44:59;;;;;;;11.75;10.52;;;5.90;87.00;;;;;;5015817;29;20087;-67
2021/10/09 03:50:21;;;;;;;11.77;10.60;;;6.00;87.20;;;;;;5012594;29;20532;-67
2021/10/09 03:52:53;;;;;;;12.30;11.07;;;6.00;87.20;;;;;;5017331;29;20053;-68
2021/10/09 03:55:25;;;;;;;13.55;10.60;;;6.00;87.30;;;;;;5019437;29;20061;-68
2021/10/09 03:57:58;;;;;;;11.82;10.63;;;6.10;87.50;;;;;;5000099;29;20049;-68
2021/10/09 04:00:33;;;;;;;12.40;11.00;;;6.10;87.30;;;;;;5017951;29;20369;-68
2021/10/09 04:03:08;;;;;;;12.18;11.05;;;6.10;87.20;;;;;;5016293;29;20049;-67
2021/10/09 04:05:40;;;;;;;11.95;10.73;;;6.10;87.30;;;;;;5002429;29;20055;-67
2021/10/09 04:08:14;;;;;;;12.18;10.88;;;6.20;88.40;;;;;;5016787;29;20140;-68
2021/10/09 04:10:46;;;;;;;13.27;11.88;;;6.20;89.30;;;;;;5019177;29;20060;-67
2021/10/09 04:13:19;;;;;;;12.20;10.82;;;6.20;88.40;;;;;;4987537;29;20068;-66
2021/10/09 04:15:51;;;;;;;12.38;11.00;;;6.30;88.30;;;;;;5016914;29;20050;-67
2021/10/09 04:18:23;;;;;;;12.15;10.95;;;6.30;87.60;;;;;;5018470;29;20791;-67
2021/10/09 04:20:55;;;;;;;13.40;11.23;;;6.30;87.60;;;;;;5003844;29;20113;-68
2021/10/09 04:23:28;;;;;;;12.68;11.20;;;6.30;87.50;;;;;;5002442;29;20049;-67
2021/10/09 04:26:00;;;;;;;12.13;10.85;;;6.30;87.80;;;;;;5016787;29;20971;-67
2021/10/09 04:28:34;;;;;;;13.50;11.65;;;6.30;87.50;;;;;;5006836;29;20076;-67
2021/10/09 04:31:06;;;;;;;12.85;11.55;;;6.30;87.90;;;;;;5017177;29;20128;-69
2021/10/09 04:33:39;;;;;;;12.25;11.02;;;6.20;88.10;;;;;;5000451;29;20152;-66
2021/10/09 04:36:12;;;;;;;13.15;11.80;;;6.20;88.10;;;;;;5001593;29;20113;-67
2021/10/09 04:38:46;;;;;;;13.30;11.90;;;6.20;88.20;;;;;;5018106;29;20056;-67
2021/10/09 04:41:18;;;;;;;13.60;12.15;;;6.30;88.40;;;;;;5015144;29;20512;-68
2021/10/09 04:43:50;;;;;;;12.68;11.07;;;6.40;88.10;;;;;;5016252;29;20563;-67
2021/10/09 04:46:22;;;;;;;12.85;11.55;;;6.40;87.50;;;;;;5000446;29;20042;-67
2021/10/09 04:48:56;;;;;;;12.43;11.13;;;6.40;87.00;;;;;;5004972;29;20050;-67
2021/10/09 04:51:29;;;;;;;11.85;10.75;;;6.40;86.80;;;;;;5000061;29;20064;-67
2021/10/09 04:54:03;;;;;;;13.18;11.82;;;6.40;86.90;;;;;;5001065;29;20053;-68
2021/10/09 04:56:35;;;;;;;12.88;11.57;;;6.40;87.00;;;;;;5017036;29;20053;-67
2021/10/09 04:59:09;;;;;;;12.38;11.13;;;6.40;86.70;;;;;;5003360;29;20053;-66
2021/10/09 05:01:41;;;;;;;13.18;11.77;;;6.40;87.10;;;;;;5016763;29;20167;-67
2021/10/09 05:04:14;;;;;;;12.45;11.15;;;6.30;87.80;;;;;;5016966;29;20052;-67
2021/10/09 05:06:46;;;;;;;13.32;11.93;;;6.30;87.50;;;;;;4998971;29;20734;-67
2021/10/09 05:09:18;;;;;;;12.35;11.05;;;6.40;87.40;;;;;;5014560;29;20148;-71
2021/10/09 05:11:50;;;;;;;12.02;10.73;;;6.30;87.40;;;;;;5015154;29;20041;-69
2021/10/09 05:14:22;;;;;;;11.88;10.73;;;6.30;86.80;;;;;;5015561;29;20550;-70
2021/10/09 05:16:59;;;;;;;12.10;10.80;;;6.30;86.40;;;;;;5013599;29;20053;-68
2021/10/09 05:19:32;;;;;;;12.00;10.75;;;6.20;86.40;;;;;;5000803;29;20049;-68
2021/10/09 05:22:05;;;;;;;12.40;11.20;;;6.20;86.40;;;;;;5014946;29;20129;-68
2021/10/09 05:24:37;;;;;;;12.10;10.90;;;6.20;86.90;;;;;;4993308;29;20221;-68
2021/10/09 05:27:10;;;;;;;12.30;11.10;;;6.20;87.10;;;;;;5016847;29;20045;-68
2021/10/09 05:29:43;;;;;;;12.35;11.05;;;6.20;87.20;;;;;;5017039;29;20054;-68
2021/10/09 05:32:22;;;;;;;11.82;10.63;;;6.10;87.20;;;;;;4999442;29;20678;-69
2021/10/09 05:34:55;;;;;;;11.93;10.73;;;6.20;87.30;;;;;;5000323;29;20465;-69
2021/10/09 05:37:31;;;;;;;12.73;11.40;;;6.20;87.90;;;;;;4999959;29;20984;-69
2021/10/09 05:40:05;;;;;;;12.73;10.65;;;6.30;87.90;;;;;;5015067;29;20055;-69
2021/10/09 05:42:37;;;;;;;12.23;11.02;;;6.30;87.90;;;;;;4996337;29;20057;-68
2021/10/09 05:45:09;;;;;;;12.55;11.25;;;6.30;88.20;;;;;;5015554;29;20160;-68
2021/10/09 05:47:41;;;;;;;12.68;11.38;;;6.40;88.10;;;;;;4998857;29;20219;-68
2021/10/09 05:50:14;;;;;;;13.25;11.95;;;6.50;88.60;;;;;;5016057;29;20050;-69
2021/10/09 05:52:51;;;;;;;13.13;11.20;;;6.50;88.80;;;;;;5014946;29;20699;-67
2021/10/09 05:55:33;;;;;;;13.75;12.23;;;6.60;88.70;;;;;;5015568;29;20121;-68
2021/10/09 05:58:17;;;;;;;13.23;11.93;;;6.60;88.80;;;;;;5016824;29;20041;-68
2021/10/09 06:01:09;;;;;;;13.27;11.90;;;6.70;88.70;;;;;;5015092;29;20042;-68
2021/10/09 06:44:54;;;;;;;14.00;12.60;;;7.10;88.90;;;;;;4998750;29;20049;-69
2021/10/09 07:01:07;;;;;;;13.32;11.95;;;7.50;88.00;;;;;;5013293;29;20123;-69
2021/10/09 07:03:40;;;;;;;14.75;13.25;;;7.60;88.20;;;;;;5008349;29;20087;-69
2021/10/09 07:06:15;;;;;;;14.25;12.70;;;7.50;87.50;;;;;;5013570;29;20070;-69
2021/10/09 07:09:02;;;;;;;15.13;13.23;;;7.40;87.30;;;;;;4999454;29;20545;-70
2021/10/09 07:11:47;;;;;;;14.27;12.77;;;7.30;88.20;;;;;;5013861;29;20612;-69
2021/10/09 07:14:21;;;;;;;15.90;14.35;;;7.40;88.10;;;;;;5014982;29;20061;-71
2021/10/09 07:16:53;;;;;;;14.57;13.00;;;7.50;87.70;;;;;;5010659;29;20052;-69
2021/10/09 07:19:25;;;;;;;14.32;12.85;;;7.60;88.00;;;;;;5014448;29;20562;-69
2021/10/09 07:21:57;;;;;;;14.93;13.32;;;7.70;88.20;;;;;;5013242;29;20101;-70
2021/10/09 07:24:50;;;;;;;15.27;13.77;;;7.80;87.90;;;;;;5014116;29;20038;-71
2021/10/09 07:27:23;;;;;;;15.70;14.20;;;7.90;87.80;;;;;;5017276;29;20536;-70
2021/10/09 07:29:55;;;;;;;15.10;13.50;;;8.00;87.60;;;;;;4987529;29;20053;-69
2021/10/09 07:32:28;;;;;;;15.20;13.63;;;8.00;87.40;;;;;;5016924;29;20058;-70
2021/10/09 07:34:59;;;;;;;14.43;13.02;;;8.10;87.60;;;;;;5019024;29;20151;-70
2021/10/09 07:37:31;;;;;;;15.48;13.98;;;8.20;87.90;;;;;;5018650;29;20533;-69
2021/10/09 07:40:05;;;;;;;15.50;13.65;;;8.30;87.50;;;;;;5018550;29;20105;-70
2021/10/09 07:42:37;;;;;;;15.35;13.85;;;8.40;87.00;;;;;;5017125;29;20098;-72
2021/10/09 07:45:09;;;;;;;14.75;13.35;;;8.40;86.80;;;;;;5017868;29;20521;-72
2021/10/09 07:47:45;;;;;;;14.82;13.43;;;8.50;85.00;;;;;;5015063;29;20056;-69
2021/10/09 07:50:17;;;;;;;15.68;14.13;;;8.60;86.20;;;;;;5019198;29;20045;-70
2021/10/09 07:52:49;;;;;;;14.73;13.05;;;8.60;86.80;;;;;;5000920;29;20113;-71
2021/10/09 07:55:21;;;;;;;14.65;13.15;;;8.70;86.80;;;;;;5020125;29;20049;-69
2021/10/09 07:57:53;;;;;;;13.57;12.25;;;8.80;86.50;;;;;;5017060;29;20059;-69
2021/10/09 08:00:25;;;;;;;15.10;13.60;;;8.80;84.70;;;;;;5019391;29;20045;-69
2021/10/09 08:03:02;;;;;;;14.18;12.77;;;8.80;84.00;;;;;;5017952;29;20073;-70
2021/10/09 08:05:36;;;;;;;14.20;12.90;;;8.80;83.10;;;;;;5002016;29;20271;-72
2021/10/09 08:08:08;;;;;;;14.75;13.30;;;8.80;83.30;;;;;;5017573;29;20133;-69
2021/10/09 08:10:40;;;;;;;14.90;13.40;;;8.80;83.20;;;;;;5018945;29;20045;-69
2021/10/09 08:13:12;;;;;;;14.02;12.63;;;8.90;82.70;;;;;;5017999;29;20152;-70
2021/10/09 08:15:45;;;;;;;14.98;13.45;;;8.90;83.70;;;;;;5001904;29;20401;-69
2021/10/09 08:18:17;;;;;;;14.70;13.18;;;9.00;82.70;;;;;;5018618;29;20053;-70
2021/10/09 08:20:54;;;;;;;14.93;13.48;;;9.10;82.60;;;;;;5018912;29;20117;-70
2021/10/09 08:23:29;;;;;;;14.85;13.32;;;9.10;82.50;;;;;;5017299;29;20041;-69
2021/10/09 08:39:47;;;;;;;14.80;13.20;;;9.60;83.10;;;;;;5018323;29;19928;-70
2021/10/09 08:42:19;;;;;;;14.43;13.02;;;9.70;82.80;;;;;;5018075;29;20068;-70
2021/10/09 08:44:51;;;;;;;14.73;13.23;;;9.80;81.70;;;;;;4987304;29;20092;-69
2021/10/09 08:47:23;;;;;;;14.43;13.02;;;9.80;80.20;;;;;;5018189;29;20053;-69
2021/10/09 08:49:54;;;;;;;15.13;13.73;;;9.70;78.70;;;;;;5017661;29;20595;-69
2021/10/09 08:52:26;;;;;;;13.88;12.48;;;9.70;79.40;;;;;;5019606;29;20053;-72
2021/10/09 08:55:18;;;;;;;14.65;13.30;;;9.70;80.80;;;;;;5001429;29;20427;-70
2021/10/09 08:57:50;;;;;;;14.48;13.13;;;9.70;79.80;;;;;;5017270;29;20084;-70
2021/10/09 09:00:50;;;;;;;14.43;12.93;;;9.70;79.40;;;;;;5017886;29;20067;-69
2021/10/09 09:03:32;;;;;;;14.45;13.15;;;9.80;80.40;;;;;;5018301;29;20056;-69
2021/10/09 09:06:15;;;;;;;14.02;12.73;;;9.80;81.10;;;;;;5002075;29;20125;-68
2021/10/09 09:09:16;;;;;;;14.80;13.30;;;9.90;80.90;;;;;;5001448;29;20467;-68
2021/10/09 09:35:23;;;;;;;14.45;13.05;;;10.20;79.70;;;;;;5016329;29;20046;-69
2021/10/09 09:40:44;;;;;;;14.57;13.07;;;10.20;80.50;;;;;;5016097;29;20048;-70
2021/10/09 09:43:16;;;;;;;15.60;14.00;;;10.30;80.20;;;;;;5016992;29;20132;-69
2021/10/09 09:45:48;;;;;;;14.65;13.18;;;10.30;80.70;;;;;;5017465;29;20503;-69
2021/10/09 09:48:21;;;;;;;14.75;13.27;;;10.30;79.50;;;;;;5013835;29;20949;-71
2021/10/09 09:50:54;;;;;;;15.27;13.77;;;10.30;80.90;;;;;;5017255;29;20740;-68
2021/10/09 09:53:26;;;;;;;14.70;13.30;;;10.30;81.40;;;;;;5018052;29;20995;-69
2021/10/09 09:55:58;;;;;;;15.30;13.82;;;10.40;81.20;;;;;;5014955;29;20115;-69
2021/10/09 09:58:40;;;;;;;15.35;13.80;;;10.40;80.00;;;;;;5016559;29;20145;-68
2021/10/09 10:01:13;;;;;;;14.30;12.90;;;10.50;81.70;;;;;;5016790;29;20579;-68
2021/10/09 10:03:48;;;;;;;14.77;13.30;;;10.60;80.40;;;;;;5011278;29;20049;-69
2021/10/09 10:06:20;;;;;;;14.40;13.10;;;10.70;80.10;;;;;;5015971;29;20145;-70
2021/10/09 10:08:55;;;;;;;15.00;13.60;;;10.80;80.00;;;;;;5016457;29;20106;-68
2021/10/09 10:11:27;;;;;;;18.15;16.25;;;10.80;77.40;;;;;;5012882;29;20056;-68
2021/10/09 10:14:01;;;;;;;16.60;14.90;;;10.70;79.10;;;;;;5016379;29;21195;-68
2021/10/09 10:16:34;;;;;;;15.40;13.90;;;10.80;79.30;;;;;;5014081;29;20647;-68
2021/10/09 10:19:06;;;;;;;15.10;13.70;;;10.90;79.60;;;;;;5017665;29;20073;-69
2021/10/09 10:21:40;;;;;;;15.00;13.57;;;11.00;79.80;;;;;;5016484;29;20049;-70
2021/10/09 10:24:33;;;;;;;15.48;13.95;;;11.00;78.50;;;;;;5016849;29;20049;-69
2021/10/09 10:27:31;;;;;;;15.68;13.95;;;11.00;78.20;;;;;;5014957;29;20132;-68
2021/10/09 10:30:36;;;;;;;14.90;13.50;;;11.10;77.80;;;;;;5017898;29;20077;-68
2021/10/09 10:33:10;;;;;;;15.25;13.85;;;11.20;77.50;;;;;;5017521;29;20496;-69
2021/10/09 10:35:46;;;;;;;15.20;13.80;;;11.20;77.50;;;;;;5016809;29;20073;-68
2021/10/09 10:38:18;;;;;;;15.13;13.68;;;11.30;78.20;;;;;;5015351;29;20053;-70
2021/10/09 10:40:56;;;;;;;15.35;13.95;;;11.40;78.30;;;;;;5016474;29;20053;-72
2021/10/09 10:46:26;;;;;;;14.55;13.15;;;11.40;77.50;;;;;;5016390;29;20045;-68
2021/10/09 10:49:05;;;;;;;16.08;14.57;;;11.50;78.20;;;;;;5016834;29;20053;-69
2021/10/09 10:51:54;;;;;;;15.50;13.98;;;11.50;78.20;;;;;;5013734;29;20049;-69
2021/10/09 10:56:59;;;;;;;15.55;14.05;;;11.60;76.70;;;;;;5017035;29;20115;-68
2021/10/09 10:59:31;;;;;;;15.15;13.75;;;11.70;76.70;;;;;;5013929;29;20080;-70
2021/10/09 11:02:17;;;;;;;15.68;14.27;;;11.70;77.30;;;;;;5015117;29;20140;-70
2021/10/09 11:05:09;;;;;;;16.42;14.82;;;11.70;76.00;;;;;;5014363;29;20085;-69
2021/10/09 11:07:43;;;;;;;16.40;14.90;;;11.70;76.90;;;;;;5016037;29;20130;-70
2021/10/09 11:10:17;;;;;;;16.35;14.75;;;11.80;77.00;;;;;;5013342;29;20110;-69
2021/10/09 11:12:51;;;;;;;17.23;15.57;;;11.80;76.80;;;;;;5015812;29;20051;-69
2021/10/09 11:15:28;;;;;;;15.95;14.55;;;11.90;76.90;;;;;;5013840;29;20100;-69
2021/10/09 11:18:04;;;;;;;16.38;14.77;;;12.10;77.80;;;;;;4999476;29;20993;-68
2021/10/09 11:20:41;;;;;;;16.45;15.05;;;12.20;74.10;;;;;;5014559;29;20129;-69
2021/10/09 11:23:13;;;;;;;16.13;14.63;;;12.20;73.50;;;;;;5017395;29;20124;-70
2021/10/09 11:25:49;;;;;;;15.07;13.73;;;12.20;73.10;;;;;;5016164;29;20719;-69
2021/10/09 11:28:28;;;;;;;16.83;15.30;;;12.40;73.70;;;;;;5000010;29;20460;-68
2021/10/09 11:31:00;;;;;;;15.25;13.95;;;12.50;72.80;;;;;;5011725;29;20056;-70
2021/10/09 11:33:33;;;;;;;16.35;14.85;;;12.60;72.20;;;;;;5016254;29;20113;-69
2021/10/09 11:36:06;;;;;;;15.50;14.10;;;12.70;70.90;;;;;;5016010;29;20112;-68
2021/10/09 11:38:37;;;;;;;15.60;14.20;;;12.80;72.90;;;;;;5000594;29;20060;-68
2021/10/09 11:41:20;;;;;;;16.10;14.60;;;12.90;72.00;;;;;;5015388;29;20049;-69
2021/10/09 11:44:00;;;;;;;16.05;14.60;;;12.90;71.00;;;;;;5018414;29;20165;-69
2021/10/09 11:55:28;;;;;;;16.35;14.85;;;13.10;71.30;;;;;;5016470;29;20057;-68
2021/10/09 11:58:03;;;;;;;16.95;15.32;;;13.00;70.90;;;;;;4997316;29;20042;-70
2021/10/09 12:00:55;;;;;;;16.20;14.80;;;13.10;70.40;;;;;;5015558;29;20045;-70
2021/10/09 12:03:33;;;;;;;15.85;14.45;;;13.10;70.20;;;;;;5013004;29;20158;-69
2021/10/09 12:06:10;;;;;;;16.92;15.40;;;13.20;71.40;;;;;;5013678;29;20085;-69
2021/10/09 12:08:54;;;;;;;17.25;15.65;;;13.20;70.40;;;;;;4990275;29;20053;-68
2021/10/09 12:11:29;;;;;;;16.15;14.75;;;13.20;69.90;;;;;;5014041;29;20132;-68
2021/10/09 12:14:05;;;;;;;16.65;15.05;;;13.30;70.40;;;;;;5013710;29;20861;-68
2021/10/09 12:16:46;;;;;;;15.93;14.52;;;13.30;70.00;;;;;;5015474;29;20470;-68
2021/10/09 12:19:29;;;;;;;16.58;15.05;;;13.30;69.50;;;;;;5019586;29;20517;-69
2021/10/09 12:22:08;;;;;;;16.10;14.55;;;13.40;70.10;;;;;;5014721;29;20038;-68
2021/10/09 12:24:48;;;;;;;16.02;14.63;;;13.40;69.40;;;;;;5015404;29;20137;-68
2021/10/09 12:27:22;;;;;;;16.17;14.77;;;13.40;69.40;;;;;;5014764;29;20050;-68
2021/10/09 12:30:12;;;;;;;15.95;14.43;;;13.50;69.70;;;;;;5018656;29;20037;-69
2021/10/09 12:32:49;;;;;;;16.33;14.82;;;13.50;69.20;;;;;;5019187;29;20058;-69
2021/10/09 12:35:30;;;;;;;17.45;15.90;;;13.50;69.00;;;;;;5015433;29;20073;-69
2021/10/09 12:38:09;;;;;;;16.65;15.25;;;13.50;68.50;;;;;;5013356;29;20073;-70
2021/10/09 12:40:44;;;;;;;16.30;14.80;;;13.50;68.60;;;;;;5015282;29;20053;-68
2021/10/09 12:43:23;;;;;;;17.02;15.52;;;13.50;68.30;;;;;;5018517;29;20064;-70
2021/10/09 12:45:55;;;;;;;16.48;15.07;;;13.50;68.90;;;;;;4999085;29;20069;-68
2021/10/09 12:48:27;;;;;;;17.58;15.98;;;13.50;67.50;;;;;;5016863;29;20509;-69
2021/10/09 12:50:59;;;;;;;16.55;15.10;;;13.40;68.20;;;;;;5015577;29;20061;-71
2021/10/09 12:53:31;;;;;;;16.77;15.27;;;13.40;68.00;;;;;;5017662;29;20059;-69
2021/10/09 12:56:03;;;;;;;16.60;15.05;;;13.40;68.30;;;;;;5013752;29;20149;-69
2021/10/09 12:58:36;;;;;;;16.55;15.15;;;13.40;67.60;;;;;;5017965;29;20057;-69
2021/10/09 13:01:07;;;;;;;15.90;14.50;;;13.40;68.50;;;;;;5003173;29;20072;-68
2021/10/09 13:03:40;;;;;;;16.63;15.23;;;13.30;67.60;;;;;;5015495;29;20157;-71
2021/10/09 13:06:12;;;;;;;16.75;15.13;;;13.30;67.90;;;;;;5015235;29;20060;-68
2021/10/09 13:08:46;;;;;;;17.05;15.45;;;13.30;68.10;;;;;;4996066;29;20109;-68
2021/10/09 13:11:23;;;;;;;16.65;15.18;;;13.30;67.80;;;;;;5017561;29;20057;-70
2021/10/09 13:13:55;;;;;;;15.80;14.40;;;13.20;67.00;;;;;;5017401;29;20136;-69
2021/10/09 13:16:27;;;;;;;17.05;15.55;;;13.20;68.00;;;;;;5014130;29;20053;-69
2021/10/09 13:18:59;;;;;;;17.42;15.73;;;13.10;68.70;;;;;;5016573;29;20065;-70
2021/10/09 13:21:31;;;;;;;17.05;15.40;;;13.10;68.20;;;;;;5016734;29;20106;-69
2021/10/09 13:24:03;;;;;;;16.92;15.52;;;13.10;68.60;;;;;;5016442;29;20073;-71
2021/10/09 13:26:35;;;;;;;17.15;15.65;;;13.00;68.70;;;;;;4998677;29;20098;-69
2021/10/09 13:29:07;;;;;;;17.00;15.52;;;13.00;68.20;;;;;;5016483;29;20056;-69
2021/10/09 13:31:39;;;;;;;17.40;15.80;;;12.90;68.50;;;;;;5016820;29;20516;-69
2021/10/09 13:34:11;;;;;;;17.92;16.13;;;12.90;69.30;;;;;;5017939;29;20048;-69
2021/10/09 13:36:44;;;;;;;16.67;15.27;;;12.90;68.20;;;;;;5017028;29;20144;-69
2021/10/09 13:39:17;;;;;;;17.00;15.40;;;12.90;67.40;;;;;;5017665;29;20157;-68
2021/10/09 13:41:49;;;;;;;16.88;15.25;;;12.80;68.70;;;;;;5017450;29;20133;-69
2021/10/09 13:44:21;;;;;;;16.60;15.00;;;12.80;68.30;;;;;;5017959;29;20057;-69
2021/10/09 13:46:52;;;;;;;16.90;15.40;;;12.90;68.10;;;;;;5016743;29;20136;-69
2021/10/09 13:49:24;;;;;;;17.20;15.60;;;12.90;67.80;;;;;;5017213;29;20128;-69
2021/10/09 13:51:56;;;;;;;17.05;15.45;;;12.90;68.00;;;;;;5017390;29;20838;-69
2021/10/09 13:54:28;;;;;;;16.58;14.88;;;12.80;67.70;;;;;;5016895;29;20721;-69
2021/10/09 13:57:00;;;;;;;16.45;14.85;;;12.90;68.40;;;;;;5015279;29;20137;-68
2021/10/09 13:59:36;;;;;;;16.40;15.00;;;13.00;68.20;;;;;;5017822;29;20539;-69
2021/10/09 14:02:09;;;;;;;16.92;15.32;;;13.00;67.60;;;;;;5015972;29;20144;-69
2021/10/09 14:04:41;;;;;;;16.15;14.65;;;13.00;67.80;;;;;;5016913;29;20053;-69
2021/10/09 14:07:13;;;;;;;16.73;15.15;;;13.00;67.50;;;;;;5013382;29;20136;-71
2021/10/09 14:09:45;;;;;;;16.77;15.18;;;13.10;68.00;;;;;;5013475;29;20082;-69
2021/10/09 14:12:17;;;;;;;16.27;14.65;;;13.10;66.90;;;;;;5003584;29;20633;-68
2021/10/09 14:14:48;;;;;;;16.23;14.73;;;13.10;67.50;;;;;;4993244;29;20049;-69
2021/10/09 14:17:20;;;;;;;16.20;14.60;;;13.10;67.40;;;;;;5014230;29;20053;-69
2021/10/09 14:20:09;;;;;;;16.42;14.82;;;13.10;67.00;;;;;;5015612;29;20649;-68
2021/10/09 14:22:41;;;;;;;16.70;15.20;;;13.30;67.50;;;;;;5014690;29;20041;-69
2021/10/09 14:25:15;;;;;;;17.42;15.77;;;13.30;67.80;;;;;;5015890;29;20068;-69
2021/10/09 14:27:47;;;;;;;16.25;14.65;;;13.50;67.50;;;;;;5015196;29;20053;-69
2021/10/09 14:30:19;;;;;;;16.05;14.55;;;13.50;65.40;;;;;;5015411;29;20208;-69
2021/10/09 14:32:51;;;;;;;16.63;15.02;;;13.60;65.30;;;;;;5016076;29;20819;-68
2021/10/09 14:35:23;;;;;;;17.25;15.68;;;13.60;65.10;;;;;;5011301;29;20080;-69
2021/10/09 14:37:55;;;;;;;17.45;15.57;;;13.70;64.90;;;;;;5010964;29;20041;-69
2021/10/09 14:40:27;;;;;;;17.15;15.13;;;13.80;65.20;;;;;;5003964;29;20175;-70
2021/10/09 14:43:00;;;;;;;17.23;15.63;;;13.90;66.40;;;;;;5016525;29;20831;-72
2021/10/09 14:45:31;;;;;;;17.17;15.48;;;13.90;63.60;;;;;;5016736;29;20076;-70
2021/10/09 14:48:08;;;;;;;16.60;14.90;;;13.90;65.00;;;;;;5015208;29;20512;-71
2021/10/09 14:50:53;;;;;;;16.15;14.75;;;14.00;65.20;;;;;;5016384;29;20572;-69
2021/10/09 15:02:21;;;;;;;17.45;15.85;;;14.50;64.60;;;;;;5015150;29;20149;-71
2021/10/09 15:18:53;;;;;;;16.13;14.55;;;13.20;65.90;;;;;;5012262;29;20054;-69
2021/10/09 15:21:25;;;;;;;17.38;15.48;;;13.00;67.20;;;;;;5016220;29;20042;-69
2021/10/09 15:23:57;;;;;;;16.08;14.57;;;12.70;66.70;;;;;;5014078;29;20575;-71
2021/10/09 15:26:28;;;;;;;16.42;14.50;;;12.50;69.30;;;;;;4998956;29;20049;-70
2021/10/09 15:29:04;;;;;;;16.45;14.95;;;12.40;68.30;;;;;;5015080;29;20294;-70
2021/10/09 15:31:43;;;;;;;18.55;16.75;;;12.30;67.50;;;;;;5013396;29;20050;-69
2021/10/09 15:34:16;;;;;;;16.52;15.02;;;12.20;68.50;;;;;;5015756;29;20368;-69
2021/10/09 15:36:49;;;;;;;16.65;14.95;;;12.10;69.40;;;;;;5014992;29;20053;-69